createdAt,value
2023-03-22T00:01:59.300Z,23.15
2023-03-22T00:04:29.498Z,23.15
2023-03-22T00:07:02.023Z,23.14
2023-03-22T00:09:32.967Z,23.13
2023-03-22T00:12:03.265Z,23.11
2023-03-22T00:14:33.748Z,23.08
2023-03-22T00:17:04.172Z,23.05
2023-03-22T00:19:34.384Z,23.05
2023-03-22T00:22:07.374Z,23.04
2023-03-22T00:24:38.120Z,23.04
2023-03-22T00:27:08.628Z,23.06
2023-03-22T00:29:40.130Z,23.06
2023-03-22T00:32:10.205Z,23.06
2023-03-22T00:34:40.269Z,23.05
2023-03-22T00:37:12.598Z,23.05
2023-03-22T00:39:43.001Z,23.04
2023-03-22T00:42:13.707Z,23.05
2023-03-22T00:44:44.530Z,23.06
2023-03-22T00:47:14.751Z,23.06
2023-03-22T00:49:45.168Z,23.06
2023-03-22T00:52:17.290Z,23.07
2023-03-22T00:54:52.439Z,23.07
2023-03-22T00:57:23.062Z,23.06
2023-03-22T00:59:54.198Z,23.05
2023-03-22T01:02:29.978Z,23.05
2023-03-22T01:05:00.259Z,23.04
2023-03-22T01:07:32.190Z,23.03
2023-03-22T01:10:02.837Z,23.03
2023-03-22T01:12:33.522Z,23.01
2023-03-22T01:15:04.112Z,23.01
2023-03-22T01:17:34.692Z,22.99
2023-03-22T01:20:07.240Z,22.98
2023-03-22T01:22:39.204Z,22.97
2023-03-22T01:25:10.938Z,22.95
2023-03-22T01:27:41.542Z,22.94
2023-03-22T01:30:13.757Z,22.93
2023-03-22T01:32:44.498Z,22.93
2023-03-22T01:35:14.874Z,22.92
2023-03-22T01:37:46.785Z,22.91
2023-03-22T01:40:17.673Z,22.89
2023-03-22T01:42:47.896Z,22.90
2023-03-22T01:45:39.907Z,22.89
2023-03-22T01:48:24.166Z,22.87
2023-03-22T01:51:10.078Z,22.84
2023-03-22T01:53:48.365Z,22.82
2023-03-22T01:56:22.015Z,22.80
2023-03-22T01:58:55.260Z,22.79
2023-03-22T02:01:27.659Z,22.76
2023-03-22T02:04:04.031Z,22.76
2023-03-22T02:06:34.395Z,22.74
2023-03-22T02:09:08.781Z,22.74
2023-03-22T02:11:43.192Z,22.72
2023-03-22T02:14:43.319Z,22.70
2023-03-22T02:17:31.792Z,22.68
2023-03-22T02:21:03.729Z,22.67
2023-03-22T02:24:30.144Z,22.62
2023-03-22T02:27:46.900Z,22.58
2023-03-22T02:31:05.585Z,22.57
2023-03-22T02:34:09.194Z,22.56
2023-03-22T02:37:30.101Z,22.55
2023-03-22T02:40:10.445Z,22.56
2023-03-22T02:42:57.756Z,22.57
2023-03-22T02:45:37.625Z,22.57
2023-03-22T02:48:15.336Z,22.57
2023-03-22T02:50:54.333Z,22.59
2023-03-22T02:53:31.558Z,22.58
2023-03-22T02:56:07.487Z,22.58
2023-03-22T02:58:46.344Z,22.59
2023-03-22T03:01:24.971Z,22.58
2023-03-22T03:04:01.411Z,22.57
2023-03-22T03:06:40.312Z,22.59
2023-03-22T03:09:22.760Z,22.59
2023-03-22T03:11:56.400Z,22.58
2023-03-22T03:14:29.062Z,22.60
2023-03-22T03:17:21.670Z,22.58
2023-03-22T03:20:12.518Z,22.58
2023-03-22T03:22:59.649Z,22.56
2023-03-22T03:25:44.121Z,22.54
2023-03-22T03:28:30.541Z,22.52
2023-03-22T03:31:09.624Z,22.50
2023-03-22T03:33:48.032Z,22.49
2023-03-22T03:36:22.596Z,22.48
2023-03-22T03:38:57.321Z,22.47
2023-03-22T03:41:32.895Z,22.48
2023-03-22T03:44:06.580Z,22.48
2023-03-22T03:46:37.702Z,22.47
2023-03-22T03:49:10.962Z,22.47
2023-03-22T03:51:52.591Z,22.47
2023-03-22T03:54:24.197Z,22.46
2023-03-22T03:56:54.948Z,22.46
2023-03-22T03:59:27.109Z,22.46
2023-03-22T04:01:57.335Z,22.47
2023-03-22T04:04:30.043Z,22.46
2023-03-22T04:07:04.049Z,22.47
2023-03-22T04:09:37.195Z,22.47
2023-03-22T04:12:09.974Z,22.48
2023-03-22T04:14:42.444Z,22.49
2023-03-22T04:17:13.327Z,22.49
2023-03-22T04:19:45.078Z,22.49
2023-03-22T04:22:18.769Z,22.50
2023-03-22T04:24:50.929Z,22.50
2023-03-22T04:27:23.987Z,22.51
2023-03-22T04:29:56.720Z,22.53
2023-03-22T04:32:26.886Z,22.54
2023-03-22T04:34:57.246Z,22.54
2023-03-22T04:37:28.217Z,22.56
2023-03-22T04:39:58.635Z,22.55
2023-03-22T04:42:28.976Z,22.55
2023-03-22T04:45:01.531Z,22.56
2023-03-22T04:47:31.939Z,22.56
2023-03-22T04:50:02.435Z,22.55
2023-03-22T04:52:32.958Z,22.57
2023-03-22T04:55:03.556Z,22.57
2023-03-22T04:57:35.598Z,22.58
2023-03-22T05:00:10.642Z,22.59
2023-03-22T05:02:41.734Z,22.60
2023-03-22T05:05:12.430Z,22.61
2023-03-22T05:07:43.225Z,22.63
2023-03-22T05:10:14.276Z,22.65
2023-03-22T05:12:44.689Z,22.66
2023-03-22T05:15:17.248Z,22.68
2023-03-22T05:17:47.616Z,22.66
2023-03-22T05:20:17.531Z,22.65
2023-03-22T05:22:50.969Z,22.65
2023-03-22T05:25:21.461Z,22.67
2023-03-22T05:27:54.728Z,22.68
2023-03-22T05:30:26.736Z,22.70
2023-03-22T05:33:03.553Z,22.73
2023-03-22T05:35:35.043Z,22.76
2023-03-22T05:38:05.839Z,22.79
2023-03-22T05:40:36.751Z,22.82
2023-03-22T05:43:07.451Z,22.86
2023-03-22T05:45:41.662Z,22.90
2023-03-22T05:48:12.139Z,22.97
2023-03-22T05:50:41.980Z,23.04
2023-03-22T05:53:12.556Z,23.11
2023-03-22T05:55:42.532Z,23.17
2023-03-22T05:58:13.396Z,23.22
2023-03-22T06:00:45.349Z,23.29
2023-03-22T06:03:18.665Z,23.36
2023-03-22T06:05:51.394Z,23.44
2023-03-22T06:08:21.769Z,23.52
2023-03-22T06:10:52.899Z,23.63
2023-03-22T06:13:24.386Z,23.70
2023-03-22T06:15:58.582Z,23.78
2023-03-22T06:18:28.439Z,23.85
2023-03-22T06:20:59.178Z,23.90
2023-03-22T06:23:30.295Z,23.96
2023-03-22T06:26:00.371Z,24.02
2023-03-22T06:28:39.525Z,24.08
2023-03-22T06:31:13.259Z,24.14
2023-03-22T06:33:43.263Z,24.19
2023-03-22T06:36:13.598Z,24.26
2023-03-22T06:38:44.250Z,24.31
2023-03-22T06:41:14.490Z,24.39
2023-03-22T06:43:45.278Z,24.44
2023-03-22T06:46:18.032Z,24.53
2023-03-22T06:48:48.212Z,24.61
2023-03-22T06:51:18.478Z,24.70
2023-03-22T06:53:48.707Z,24.79
2023-03-22T06:56:18.436Z,24.89
2023-03-22T06:58:49.531Z,24.97
2023-03-22T07:01:22.258Z,25.04
2023-03-22T07:03:52.874Z,25.13
2023-03-22T07:06:23.243Z,25.20
2023-03-22T07:08:53.438Z,25.28
2023-03-22T07:11:24.030Z,25.37
2023-03-22T07:13:54.942Z,25.46
2023-03-22T07:16:28.503Z,25.53
2023-03-22T07:18:59.401Z,25.60
2023-03-22T07:21:29.711Z,25.67
2023-03-22T07:24:00.191Z,25.73
2023-03-22T07:26:30.982Z,25.79
2023-03-22T07:29:03.296Z,25.86
2023-03-22T07:31:38.295Z,25.93
2023-03-22T07:34:09.269Z,25.98
2023-03-22T07:36:40.567Z,26.04
2023-03-22T07:39:11.333Z,26.10
2023-03-22T07:41:43.552Z,26.18
2023-03-22T07:44:18.038Z,26.24
2023-03-22T07:46:52.121Z,26.30
2023-03-22T07:49:22.673Z,26.34
2023-03-22T07:51:53.421Z,26.38
2023-03-22T07:54:33.368Z,26.42
2023-03-22T07:57:04.927Z,26.46
2023-03-22T07:59:36.613Z,26.50
2023-03-22T08:02:16.699Z,26.53
2023-03-22T08:04:53.919Z,26.54
2023-03-22T08:07:28.817Z,26.57
2023-03-22T08:09:59.882Z,26.59
2023-03-22T08:12:30.553Z,26.62
2023-03-22T08:15:01.181Z,26.66
2023-03-22T08:17:33.865Z,26.70
2023-03-22T08:20:09.610Z,26.75
2023-03-22T08:22:39.622Z,26.82
2023-03-22T08:25:11.483Z,26.86
2023-03-22T08:27:42.097Z,26.94
2023-03-22T08:30:15.587Z,26.99
2023-03-22T08:32:47.566Z,27.04
2023-03-22T08:35:18.238Z,27.09
2023-03-22T08:37:49.395Z,27.15
2023-03-22T08:40:19.681Z,27.20
2023-03-22T08:42:49.579Z,27.26
2023-03-22T08:45:20.617Z,27.28
2023-03-22T08:47:52.626Z,27.32
2023-03-22T08:50:23.816Z,27.35
2023-03-22T08:52:54.228Z,27.38
2023-03-22T08:55:25.435Z,27.43
2023-03-22T08:57:59.422Z,27.46
2023-03-22T09:00:39.285Z,27.48
2023-03-22T09:03:20.356Z,27.52
2023-03-22T09:05:50.590Z,27.55
2023-03-22T09:08:21.151Z,27.59
2023-03-22T09:10:52.299Z,27.63
2023-03-22T09:13:24.006Z,27.66
2023-03-22T09:15:55.102Z,27.68
2023-03-22T09:18:28.031Z,27.69
2023-03-22T09:20:58.522Z,27.70
2023-03-22T09:23:29.395Z,27.70
2023-03-22T09:26:02.745Z,27.69
2023-03-22T09:28:34.240Z,27.67
2023-03-22T09:31:04.620Z,27.65
2023-03-22T09:33:38.710Z,27.65
2023-03-22T09:36:09.939Z,27.62
2023-03-22T09:38:41.523Z,27.62
2023-03-22T09:41:20.804Z,27.63
2023-03-22T09:43:57.562Z,27.64
2023-03-22T09:46:34.617Z,27.66
2023-03-22T09:49:13.868Z,27.68
2023-03-22T09:51:50.169Z,27.70
2023-03-22T09:54:35.741Z,27.74
2023-03-22T09:57:16.157Z,27.74
2023-03-22T09:59:59.135Z,27.76
2023-03-22T10:02:55.104Z,27.75
2023-03-22T10:05:37.899Z,27.75
2023-03-22T10:08:42.459Z,27.74
2023-03-22T10:11:27.563Z,27.73
2023-03-22T10:14:07.267Z,27.74
2023-03-22T10:16:40.373Z,27.75
2023-03-22T10:19:22.152Z,27.76
2023-03-22T10:21:58.530Z,27.75
2023-03-22T10:24:34.635Z,27.74
2023-03-22T10:27:06.380Z,27.72
2023-03-22T10:29:41.599Z,27.71
2023-03-22T10:32:19.097Z,27.70
2023-03-22T10:34:49.920Z,27.68
2023-03-22T10:37:27.109Z,27.68
2023-03-22T10:40:01.079Z,27.66
2023-03-22T10:42:34.524Z,27.65
2023-03-22T10:45:10.097Z,27.66
2023-03-22T10:47:45.805Z,27.67
2023-03-22T10:50:23.991Z,27.68
2023-03-22T10:53:06.080Z,27.66
2023-03-22T10:55:42.686Z,27.64
2023-03-22T10:58:17.843Z,27.62
2023-03-22T11:00:50.460Z,27.61
2023-03-22T11:03:32.923Z,27.61
2023-03-22T11:06:12.087Z,27.60
2023-03-22T11:08:47.645Z,27.60
2023-03-22T11:11:24.805Z,27.57
2023-03-22T11:14:02.017Z,27.54
2023-03-22T11:16:34.785Z,27.53
2023-03-22T11:19:06.495Z,27.52
2023-03-22T11:21:36.949Z,27.50
2023-03-22T11:24:12.743Z,27.49
2023-03-22T11:26:45.409Z,27.46
2023-03-22T11:29:21.010Z,27.45
2023-03-22T11:32:01.165Z,27.44
2023-03-22T11:34:34.197Z,27.43
2023-03-22T11:37:09.622Z,27.41
2023-03-22T11:39:50.465Z,27.44
2023-03-22T11:42:23.846Z,27.44
2023-03-22T11:44:58.998Z,27.45
2023-03-22T11:47:40.655Z,27.45
2023-03-22T11:50:28.219Z,27.45
2023-03-22T11:52:58.805Z,27.44
2023-03-22T11:55:33.901Z,27.45
2023-03-22T11:58:06.100Z,27.45
2023-03-22T12:00:41.229Z,27.45
2023-03-22T12:03:18.498Z,27.45
2023-03-22T12:05:53.506Z,27.44
2023-03-22T12:08:36.889Z,27.44
2023-03-22T12:11:15.850Z,27.42
2023-03-22T12:13:54.382Z,27.42
2023-03-22T12:16:30.406Z,27.40
2023-03-22T12:19:15.838Z,27.41
2023-03-22T12:21:49.593Z,27.39
2023-03-22T12:24:30.637Z,27.39
2023-03-22T12:27:11.913Z,27.38
2023-03-22T12:29:48.193Z,27.36
2023-03-22T12:32:25.724Z,27.35
2023-03-22T12:35:05.411Z,27.34
2023-03-22T12:37:51.964Z,27.32
2023-03-22T12:40:29.139Z,27.31
2023-03-22T12:43:13.992Z,27.28
2023-03-22T12:45:53.531Z,27.27
2023-03-22T12:48:39.015Z,27.25
2023-03-22T12:51:13.414Z,27.22
2023-03-22T12:53:49.653Z,27.22
2023-03-22T12:56:23.953Z,27.21
2023-03-22T12:59:04.039Z,27.20
2023-03-22T13:01:42.160Z,27.18
2023-03-22T13:04:48.557Z,27.16
2023-03-22T13:07:36.496Z,27.13
2023-03-22T13:11:13.646Z,27.11
2023-03-22T13:13:50.352Z,27.06
2023-03-22T13:16:44.374Z,27.06
2023-03-22T13:19:32.437Z,27.05
2023-03-22T13:22:24.604Z,27.04
2023-03-22T13:25:08.117Z,27.02
2023-03-22T13:27:52.624Z,27.02
2023-03-22T13:30:33.005Z,26.99
2023-03-22T13:33:21.605Z,26.98
2023-03-22T13:35:57.164Z,26.96
2023-03-22T13:38:31.877Z,26.96
2023-03-22T13:41:08.777Z,26.95
2023-03-22T13:43:48.432Z,26.93
2023-03-22T13:46:53.264Z,26.90
2023-03-22T13:49:53.566Z,26.88
2023-03-22T13:52:37.860Z,26.84
2023-03-22T13:55:43.939Z,26.83
2023-03-22T13:58:37.185Z,26.82
2023-03-22T14:01:16.173Z,26.79
2023-03-22T14:03:51.069Z,26.78
2023-03-22T14:06:29.240Z,26.78
2023-03-22T14:09:06.537Z,26.76
2023-03-22T14:11:47.080Z,26.75
2023-03-22T14:14:23.969Z,26.73
2023-03-22T14:17:01.073Z,26.72
2023-03-22T14:19:36.458Z,26.72
